Time;durP1;ratioP1;P1;durP2;ratioP2;P2;SDS_P1;SDS_P2;PMS_P1;PMS_P2;Temp;Humidity;BMP_temperature;BMP_pressure;BME280_temperature;BME280_humidity;BME280_pressure;Samples;Min_cycle;Max_cycle;Signal;HPM_P1;HPM_P2
2021/07/23 00:00:50;;;;;;;22.47;11.90;;;20.70;74.30;;;;;;4986402;28;20433;-73
2021/07/23 00:03:15;;;;;;;21.13;10.73;;;20.60;74.50;;;;;;4988358;28;20439;-75
2021/07/23 00:05:41;;;;;;;18.93;11.33;;;20.50;74.80;;;;;;4989687;28;20552;-75
2021/07/23 00:08:07;;;;;;;17.90;10.30;;;20.50;75.10;;;;;;4980772;28;20575;-73
2021/07/23 00:10:33;;;;;;;18.90;10.80;;;20.40;75.40;;;;;;4989202;28;20184;-73
2021/07/23 00:12:59;;;;;;;17.47;10.40;;;20.30;75.70;;;;;;4985629;28;20553;-74
2021/07/23 00:15:25;;;;;;;21.10;11.23;;;20.20;76.10;;;;;;4989669;28;20192;-73
2021/07/23 00:17:51;;;;;;;16.93;10.23;;;20.10;76.50;;;;;;4982176;28;21003;-74
2021/07/23 00:20:17;;;;;;;16.70;10.50;;;20.00;77.00;;;;;;4987669;28;20183;-73
2021/07/23 00:22:42;;;;;;;17.27;10.20;;;19.90;77.40;;;;;;4986252;28;20696;-74
2021/07/23 00:25:09;;;;;;;19.40;10.80;;;19.90;77.40;;;;;;4987819;28;20183;-73
2021/07/23 00:27:34;;;;;;;19.43;10.27;;;19.80;77.80;;;;;;4983245;28;20669;-73
2021/07/23 00:30:00;;;;;;;21.70;11.63;;;19.80;78.10;;;;;;4987752;28;20458;-75
2021/07/23 00:32:26;;;;;;;19.77;10.97;;;19.70;78.40;;;;;;4981664;28;20862;-73
2021/07/23 00:34:52;;;;;;;20.17;11.20;;;19.60;78.60;;;;;;4990746;28;20654;-73
2021/07/23 00:37:18;;;;;;;20.43;10.70;;;19.60;78.70;;;;;;4989861;28;20678;-75
2021/07/23 00:39:43;;;;;;;19.40;9.80;;;19.60;78.90;;;;;;4986942;28;20237;-73
2021/07/23 00:42:09;;;;;;;23.53;10.73;;;19.60;79.00;;;;;;4990173;28;20270;-74
2021/07/23 00:44:35;;;;;;;20.83;11.00;;;19.50;79.30;;;;;;4990753;28;20193;-74
2021/07/23 00:47:01;;;;;;;16.97;10.20;;;19.50;79.30;;;;;;4990592;28;20198;-74
2021/07/23 00:49:27;;;;;;;19.27;10.77;;;19.50;79.50;;;;;;4982887;28;21048;-75
2021/07/23 00:51:53;;;;;;;21.00;9.53;;;19.40;79.60;;;;;;4983406;28;20452;-73
2021/07/23 00:54:19;;;;;;;20.50;10.90;;;19.40;79.70;;;;;;4983610;28;20450;-73
2021/07/23 00:56:45;;;;;;;19.83;11.47;;;19.40;79.70;;;;;;4986355;28;20464;-74
2021/07/23 00:59:11;;;;;;;19.13;10.60;;;19.30;80.00;;;;;;4988971;28;20422;-74
2021/07/23 01:01:37;;;;;;;17.93;10.17;;;19.30;80.00;;;;;;4991452;28;20483;-73
2021/07/23 01:04:03;;;;;;;21.50;10.93;;;19.20;80.20;;;;;;4987392;28;20426;-73
2021/07/23 01:06:30;;;;;;;17.30;10.00;;;19.20;80.20;;;;;;4990585;28;21017;-74
2021/07/23 01:08:56;;;;;;;19.27;10.90;;;19.10;80.50;;;;;;4989650;28;21045;-74
2021/07/23 01:11:25;;;;;;;25.63;10.77;;;19.10;80.50;;;;;;4989566;28;20518;-74
2021/07/23 01:13:52;;;;;;;17.27;9.97;;;19.10;80.50;;;;;;4983878;28;20214;-72
2021/07/23 01:16:17;;;;;;;19.60;10.47;;;19.00;80.90;;;;;;4988707;28;20437;-75
2021/07/23 01:18:43;;;;;;;18.93;10.33;;;19.00;80.90;;;;;;4981194;28;20429;-74
2021/07/23 01:21:11;;;;;;;16.40;10.27;;;19.00;81.10;;;;;;4985701;28;20245;-74
2021/07/23 01:23:37;;;;;;;18.77;10.70;;;19.00;81.20;;;;;;4984902;28;20895;-74
2021/07/23 01:26:04;;;;;;;22.50;10.17;;;19.00;81.20;;;;;;4994417;28;21017;-73
2021/07/23 01:28:32;;;;;;;20.03;11.13;;;19.10;81.10;;;;;;4983834;28;20465;-73
2021/07/23 01:31:01;;;;;;;16.53;10.40;;;19.00;80.90;;;;;;4991855;28;20421;-74
2021/07/23 01:33:26;;;;;;;18.60;10.70;;;19.00;81.20;;;;;;4990051;28;20424;-72
2021/07/23 01:35:52;;;;;;;19.13;10.57;;;18.90;81.40;;;;;;4989882;28;20441;-73
2021/07/23 01:38:22;;;;;;;18.93;10.33;;;18.90;81.40;;;;;;4990155;28;20194;-74
2021/07/23 01:40:49;;;;;;;21.50;11.53;;;18.90;81.50;;;;;;4987492;28;20426;-74
2021/07/23 01:43:15;;;;;;;16.63;9.70;;;18.90;81.50;;;;;;4987380;28;20434;-73
2021/07/23 01:45:42;;;;;;;21.50;9.70;;;18.80;81.80;;;;;;4985445;28;20507;-73
2021/07/23 01:48:07;;;;;;;16.57;10.07;;;18.80;81.90;;;;;;4984844;28;20468;-74
2021/07/23 01:50:33;;;;;;;25.10;11.30;;;18.80;81.80;;;;;;4982860;28;20790;-74
2021/07/23 01:52:59;;;;;;;20.37;10.50;;;18.80;81.80;;;;;;4990340;28;20218;-73
2021/07/23 01:55:25;;;;;;;16.57;10.60;;;18.80;81.90;;;;;;4988905;28;20593;-73
2021/07/23 01:57:51;;;;;;;17.73;9.93;;;18.70;81.90;;;;;;4986001;28;20204;-73
2021/07/23 02:00:17;;;;;;;19.47;10.70;;;18.70;82.10;;;;;;4987120;28;20192;-73
2021/07/23 02:02:43;;;;;;;18.10;10.33;;;18.70;82.10;;;;;;4993100;28;20417;-72
2021/07/23 02:05:09;;;;;;;17.27;9.60;;;18.70;82.20;;;;;;4986139;28;20436;-74
2021/07/23 02:07:36;;;;;;;16.20;9.40;;;18.70;82.40;;;;;;4993046;28;20881;-74
2021/07/23 02:10:02;;;;;;;18.57;9.30;;;18.60;82.50;;;;;;4986392;28;20429;-72
2021/07/23 02:12:28;;;;;;;17.50;10.07;;;18.70;82.70;;;;;;4992055;28;20437;-75
2021/07/23 02:14:54;;;;;;;17.03;10.03;;;18.70;82.70;;;;;;4993367;28;20759;-74
2021/07/23 02:17:19;;;;;;;18.37;10.40;;;18.70;82.70;;;;;;4992873;28;20213;-73
2021/07/23 02:19:45;;;;;;;21.73;10.13;;;18.70;82.70;;;;;;4993140;28;20328;-75
2021/07/23 02:22:11;;;;;;;17.40;9.57;;;18.70;82.40;;;;;;4993253;28;20179;-73
2021/07/23 02:24:36;;;;;;;17.23;9.50;;;18.60;82.70;;;;;;4990595;28;20200;-73
2021/07/23 02:27:02;;;;;;;22.20;10.80;;;18.60;82.50;;;;;;4992645;28;20210;-74
2021/07/23 02:29:28;;;;;;;20.10;11.00;;;18.60;82.80;;;;;;4993130;28;20551;-73
2021/07/23 02:31:53;;;;;;;19.00;10.40;;;18.50;83.10;;;;;;4992698;28;20576;-73
2021/07/23 02:34:19;;;;;;;19.80;10.30;;;18.50;83.60;;;;;;4986741;28;20195;-75
2021/07/23 02:36:45;;;;;;;19.33;11.30;;;18.50;83.60;;;;;;4992089;28;20578;-74
2021/07/23 02:39:10;;;;;;;20.93;11.17;;;18.50;83.60;;;;;;4986112;28;20295;-74
2021/07/23 02:41:36;;;;;;;20.50;9.87;;;18.40;83.70;;;;;;4993280;28;20206;-75
2021/07/23 02:44:02;;;;;;;20.87;10.10;;;18.40;83.70;;;;;;4991526;28;20184;-75
2021/07/23 02:46:29;;;;;;;22.27;10.70;;;18.40;83.70;;;;;;4990838;28;20199;-75
2021/07/23 02:48:55;;;;;;;17.23;9.63;;;18.40;83.70;;;;;;4992814;28;20823;-74
2021/07/23 02:51:21;;;;;;;17.30;9.70;;;18.30;83.70;;;;;;4989620;28;20439;-73
2021/07/23 02:53:46;;;;;;;16.93;9.27;;;18.20;84.00;;;;;;4993139;28;20420;-73
2021/07/23 02:56:12;;;;;;;16.60;9.77;;;18.20;84.00;;;;;;4992050;28;20207;-74
2021/07/23 02:58:40;;;;;;;19.00;9.87;;;18.20;84.10;;;;;;4992448;28;20261;-73
2021/07/23 03:01:07;;;;;;;16.50;9.30;;;18.20;84.30;;;;;;4992457;28;20176;-73
2021/07/23 03:03:32;;;;;;;21.43;10.60;;;18.10;84.40;;;;;;4988664;28;20831;-74
2021/07/23 03:05:59;;;;;;;16.83;9.10;;;18.10;84.60;;;;;;4983063;28;20441;-74
2021/07/23 03:08:25;;;;;;;15.73;9.37;;;18.10;84.70;;;;;;4987110;28;20214;-74
2021/07/23 03:10:51;;;;;;;18.07;10.63;;;18.10;84.70;;;;;;4990912;28;20916;-73
2021/07/23 03:13:17;;;;;;;16.80;10.20;;;18.10;84.90;;;;;;4992011;28;20432;-72
2021/07/23 03:15:43;;;;;;;21.30;11.33;;;18.00;85.20;;;;;;4990338;28;20573;-73
2021/07/23 03:18:08;;;;;;;22.67;10.27;;;18.00;85.30;;;;;;4990538;28;20657;-73
2021/07/23 03:20:36;;;;;;;17.67;10.30;;;18.00;85.30;;;;;;4990370;28;20584;-73
2021/07/23 03:23:03;;;;;;;21.33;11.27;;;18.00;85.30;;;;;;4987864;28;20229;-73
2021/07/23 03:25:29;;;;;;;21.20;10.30;;;17.90;85.50;;;;;;4983966;28;20472;-74
2021/07/23 03:27:55;;;;;;;17.83;9.77;;;17.90;85.70;;;;;;4985175;28;20481;-73
2021/07/23 03:30:21;;;;;;;20.17;10.33;;;17.90;85.90;;;;;;4986793;28;20190;-74
2021/07/23 03:32:46;;;;;;;19.70;10.60;;;17.90;85.70;;;;;;4989002;28;20652;-74
2021/07/23 03:35:12;;;;;;;19.50;9.70;;;17.80;86.20;;;;;;4990055;28;20187;-72
2021/07/23 03:37:38;;;;;;;22.63;11.50;;;17.70;86.30;;;;;;4988634;28;20238;-73
2021/07/23 03:40:05;;;;;;;22.30;11.20;;;17.70;86.60;;;;;;4985497;28;20188;-73
2021/07/23 03:42:32;;;;;;;23.13;11.33;;;17.70;86.60;;;;;;4988424;28;20206;-73
2021/07/23 03:44:58;;;;;;;17.73;10.60;;;17.60;86.90;;;;;;4987962;28;20434;-72
2021/07/23 03:47:24;;;;;;;21.27;11.17;;;17.60;87.00;;;;;;4986255;28;20631;-74
2021/07/23 03:49:50;;;;;;;18.43;10.73;;;17.50;87.00;;;;;;4990482;28;20978;-74
2021/07/23 03:52:16;;;;;;;19.80;11.10;;;17.50;87.40;;;;;;4984045;28;20183;-74
2021/07/23 03:54:41;;;;;;;16.57;9.70;;;17.50;87.40;;;;;;4990263;28;20198;-76
2021/07/23 03:57:07;;;;;;;16.50;9.40;;;17.40;87.70;;;;;;4988346;28;20272;-73
2021/07/23 03:59:33;;;;;;;19.83;10.47;;;17.30;88.10;;;;;;4988336;28;20254;-74
2021/07/23 04:01:59;;;;;;;19.10;10.90;;;17.30;88.40;;;;;;4988646;28;20182;-73
2021/07/23 04:04:25;;;;;;;19.90;10.70;;;17.40;88.10;;;;;;4987503;28;20421;-74
2021/07/23 04:06:59;;;;;;;17.57;10.80;;;17.40;88.10;;;;;;4985835;28;20208;-75
2021/07/23 04:09:25;;;;;;;19.30;11.00;;;17.40;88.30;;;;;;4987517;28;20183;-75
2021/07/23 04:11:52;;;;;;;20.40;10.60;;;17.30;88.40;;;;;;4984277;28;20441;-75
2021/07/23 04:14:19;;;;;;;21.03;10.77;;;17.30;88.30;;;;;;4985629;28;20835;-72
2021/07/23 04:16:44;;;;;;;19.90;11.83;;;17.30;88.40;;;;;;4990088;28;20533;-73
2021/07/23 04:19:10;;;;;;;19.20;10.80;;;17.40;88.30;;;;;;4989167;28;20524;-73
2021/07/23 04:21:36;;;;;;;19.13;10.60;;;17.30;88.00;;;;;;4991313;28;20190;-75
2021/07/23 04:24:02;;;;;;;19.23;9.33;;;17.30;88.10;;;;;;4980959;28;20194;-74
2021/07/23 04:26:28;;;;;;;22.73;11.07;;;17.20;88.40;;;;;;4990870;28;20210;-74
2021/07/23 04:28:54;;;;;;;20.57;10.47;;;17.20;88.60;;;;;;4997721;28;20470;-74
2021/07/23 04:31:20;;;;;;;21.90;12.10;;;17.20;88.90;;;;;;4997752;28;20524;-74
2021/07/23 04:33:45;;;;;;;23.47;11.90;;;17.20;88.90;;;;;;5006584;28;20183;-74
2021/07/23 04:36:11;;;;;;;19.60;11.13;;;17.20;89.00;;;;;;4992136;28;20643;-75
2021/07/23 04:38:37;;;;;;;19.93;10.67;;;17.20;89.00;;;;;;4989843;28;20671;-73
2021/07/23 04:41:05;;;;;;;21.13;11.80;;;17.20;88.90;;;;;;4991021;28;20201;-74
2021/07/23 04:43:32;;;;;;;18.00;10.30;;;17.20;89.00;;;;;;4989881;28;20192;-73
2021/07/23 04:45:59;;;;;;;23.00;10.37;;;17.20;89.00;;;;;;4988649;28;20471;-74
2021/07/23 04:48:24;;;;;;;19.37;10.33;;;17.30;89.20;;;;;;4988475;28;20468;-75
2021/07/23 04:50:50;;;;;;;21.10;10.70;;;17.40;89.00;;;;;;4989514;28;20466;-74
2021/07/23 04:53:17;;;;;;;23.40;10.90;;;17.50;88.90;;;;;;4983099;28;20196;-75
2021/07/23 04:55:48;;;;;;;20.00;10.73;;;17.60;88.60;;;;;;4985621;28;20525;-73
2021/07/23 04:58:14;;;;;;;18.47;10.93;;;17.70;88.30;;;;;;4982070;28;20810;-75
2021/07/23 05:00:40;;;;;;;24.27;10.90;;;17.70;87.80;;;;;;4990405;28;20427;-75
2021/07/23 05:03:06;;;;;;;17.43;10.57;;;17.80;87.40;;;;;;4984555;28;20453;-74
2021/07/23 05:05:34;;;;;;;20.10;10.93;;;17.90;86.60;;;;;;4983063;28;20269;-73
2021/07/23 05:08:00;;;;;;;21.40;11.07;;;17.90;86.50;;;;;;4984000;28;20215;-73
2021/07/23 05:10:27;;;;;;;21.70;11.37;;;17.90;86.60;;;;;;4990947;28;20458;-73
2021/07/23 05:12:52;;;;;;;21.10;11.70;;;18.00;86.30;;;;;;4986323;28;20913;-74
2021/07/23 05:15:18;;;;;;;18.93;11.07;;;18.00;86.50;;;;;;4987134;28;20430;-75
2021/07/23 05:17:44;;;;;;;22.37;12.03;;;18.10;85.90;;;;;;4986132;28;20778;-74
2021/07/23 05:20:10;;;;;;;18.80;9.93;;;18.20;85.60;;;;;;4991309;28;20484;-74
2021/07/23 05:22:38;;;;;;;20.10;10.90;;;18.30;85.30;;;;;;4986440;28;20184;-73
2021/07/23 05:25:07;;;;;;;20.83;11.40;;;18.40;85.20;;;;;;4986382;28;20431;-72
2021/07/23 05:27:34;;;;;;;22.10;11.00;;;18.50;85.30;;;;;;4986724;28;20550;-73
2021/07/23 05:30:00;;;;;;;22.20;10.57;;;18.70;84.70;;;;;;4988714;28;20431;-75
2021/07/23 05:32:26;;;;;;;22.00;11.10;;;18.70;84.70;;;;;;4983374;28;20425;-75
2021/07/23 05:34:51;;;;;;;16.20;9.53;;;18.80;84.10;;;;;;4993500;28;20193;-74
2021/07/23 05:37:17;;;;;;;19.67;11.30;;;18.90;83.30;;;;;;4993190;28;20297;-74
2021/07/23 05:39:43;;;;;;;24.70;11.87;;;19.00;81.80;;;;;;4994081;28;20191;-73
2021/07/23 05:42:09;;;;;;;24.00;10.87;;;19.10;81.20;;;;;;4989816;28;20265;-74
2021/07/23 05:44:35;;;;;;;17.67;10.50;;;19.20;81.20;;;;;;4993453;28;20192;-74
2021/07/23 05:47:01;;;;;;;18.70;10.17;;;19.20;81.50;;;;;;4986915;28;20443;-73
2021/07/23 05:49:29;;;;;;;24.60;12.13;;;19.20;81.50;;;;;;4992768;28;20225;-74
2021/07/23 05:51:55;;;;;;;21.03;11.07;;;19.30;81.40;;;;;;4988755;28;20194;-74
2021/07/23 05:54:21;;;;;;;22.30;11.70;;;19.40;81.40;;;;;;4989812;28;20506;-75
2021/07/23 05:56:47;;;;;;;17.93;9.83;;;19.40;81.10;;;;;;4983758;28;20343;-75
2021/07/23 05:59:13;;;;;;;17.47;10.83;;;19.50;80.50;;;;;;4988621;28;20217;-75
2021/07/23 06:01:40;;;;;;;22.60;11.73;;;19.50;80.20;;;;;;4987757;28;20217;-74
2021/07/23 06:04:05;;;;;;;21.33;11.37;;;19.50;80.00;;;;;;4990132;28;20426;-74
2021/07/23 06:06:32;;;;;;;27.70;12.90;;;19.60;79.90;;;;;;4985009;28;20210;-75
2021/07/23 06:08:59;;;;;;;24.43;13.20;;;19.70;79.50;;;;;;5002368;28;20648;-74
2021/07/23 06:11:25;;;;;;;22.33;11.07;;;19.80;78.70;;;;;;4982490;28;20831;-74
2021/07/23 06:13:51;;;;;;;25.27;12.93;;;19.80;78.90;;;;;;4988308;28;20422;-76
2021/07/23 06:16:16;;;;;;;25.07;11.67;;;19.80;78.70;;;;;;4991110;28;20208;-76
2021/07/23 06:18:42;;;;;;;30.57;13.13;;;19.80;79.00;;;;;;4994850;28;20675;-77
2021/07/23 06:21:08;;;;;;;23.97;12.90;;;19.90;78.90;;;;;;4992367;28;20264;-76
2021/07/23 06:23:35;;;;;;;26.27;12.70;;;19.90;78.90;;;;;;4994339;28;20202;-76
2021/07/23 06:26:02;;;;;;;24.00;12.63;;;20.00;78.60;;;;;;4990639;28;20445;-76
2021/07/23 06:28:28;;;;;;;21.67;12.60;;;20.00;78.90;;;;;;4992759;28;20540;-76
2021/07/23 06:31:01;;;;;;;27.50;14.30;;;20.20;78.60;;;;;;4989781;28;20415;-76
2021/07/23 06:33:28;;;;;;;27.20;13.23;;;20.30;78.00;;;;;;4992112;28;20422;-76
2021/07/23 06:35:53;;;;;;;25.23;13.47;;;20.30;77.60;;;;;;4998256;28;20981;-75
2021/07/23 06:38:19;;;;;;;29.70;13.97;;;20.30;77.80;;;;;;5006259;28;20462;-76
2021/07/23 06:40:45;;;;;;;26.57;14.30;;;20.30;77.40;;;;;;4998987;28;20561;-76
2021/07/23 06:43:10;;;;;;;26.40;13.30;;;20.20;77.80;;;;;;4995072;28;20237;-77
2021/07/23 06:45:36;;;;;;;25.10;13.07;;;20.20;78.10;;;;;;4993235;28;20741;-76
2021/07/23 06:48:02;;;;;;;29.03;14.13;;;20.20;78.60;;;;;;4994768;28;20214;-76
2021/07/23 06:50:31;;;;;;;26.00;13.47;;;20.30;78.60;;;;;;4984295;28;20671;-76
2021/07/23 06:52:57;;;;;;;23.57;12.43;;;20.40;78.60;;;;;;4994093;28;20419;-76
2021/07/23 06:55:23;;;;;;;25.63;13.80;;;20.50;78.10;;;;;;4990697;28;20430;-77
2021/07/23 06:57:49;;;;;;;26.47;13.30;;;20.50;77.80;;;;;;4994998;28;20449;-76
2021/07/23 07:00:15;;;;;;;23.73;13.17;;;20.60;78.00;;;;;;4994168;28;20196;-76
2021/07/23 07:02:40;;;;;;;29.60;14.63;;;20.70;77.80;;;;;;4995916;28;20553;-76
2021/07/23 07:05:07;;;;;;;31.60;15.40;;;20.60;76.80;;;;;;4994743;28;20428;-76
2021/07/23 07:07:32;;;;;;;26.07;13.70;;;20.70;77.10;;;;;;4992464;28;20215;-75
2021/07/23 07:09:58;;;;;;;25.30;14.97;;;20.70;77.60;;;;;;4992708;28;20444;-75
2021/07/23 07:12:24;;;;;;;29.73;14.80;;;20.70;77.40;;;;;;4992343;28;20207;-75
2021/07/23 07:14:51;;;;;;;22.73;13.30;;;20.80;77.30;;;;;;4987067;28;20548;-76
2021/07/23 07:17:18;;;;;;;26.90;14.10;;;20.90;76.40;;;;;;4993837;28;20214;-75
2021/07/23 07:19:44;;;;;;;23.67;13.33;;;20.90;76.20;;;;;;4985580;28;20881;-75
2021/07/23 07:22:10;;;;;;;27.17;14.10;;;20.90;76.50;;;;;;4993192;28;20484;-75
2021/07/23 07:24:36;;;;;;;27.73;13.80;;;20.90;77.00;;;;;;5002673;28;20538;-76
2021/07/23 07:27:02;;;;;;;29.40;14.70;;;21.00;77.00;;;;;;4992124;28;20216;-76
2021/07/23 07:29:28;;;;;;;27.30;14.13;;;21.10;76.80;;;;;;4988832;28;20563;-76
2021/07/23 07:31:54;;;;;;;32.97;16.30;;;21.20;76.50;;;;;;4984197;28;20643;-75
2021/07/23 07:34:19;;;;;;;27.10;14.70;;;21.20;76.10;;;;;;4989441;28;20436;-75
2021/07/23 07:36:45;;;;;;;29.57;14.83;;;21.20;76.50;;;;;;4984681;28;20218;-75
2021/07/23 07:39:11;;;;;;;27.00;14.67;;;21.30;77.10;;;;;;4991986;28;20193;-75
2021/07/23 07:41:37;;;;;;;28.83;15.83;;;21.40;77.30;;;;;;4990507;28;20688;-75
2021/07/23 07:44:04;;;;;;;33.27;16.80;;;21.50;76.20;;;;;;4991948;28;20424;-77
2021/07/23 07:46:30;;;;;;;30.13;15.33;;;21.50;75.40;;;;;;4984159;28;20217;-75
2021/07/23 07:48:55;;;;;;;29.90;16.43;;;21.50;75.80;;;;;;4991778;28;20486;-76
2021/07/23 07:51:21;;;;;;;36.20;15.57;;;21.50;76.10;;;;;;4992251;28;20220;-76
2021/07/23 07:53:47;;;;;;;29.33;15.53;;;21.60;76.40;;;;;;4992120;28;20244;-75
2021/07/23 07:56:13;;;;;;;32.30;16.43;;;21.60;75.90;;;;;;4995902;28;20260;-75
2021/07/23 07:58:39;;;;;;;29.33;16.03;;;21.80;75.10;;;;;;4985911;28;20189;-77
2021/07/23 08:01:06;;;;;;;29.60;16.50;;;21.80;74.30;;;;;;4992734;28;20948;-76
2021/07/23 08:03:32;;;;;;;29.60;16.57;;;21.80;74.30;;;;;;5007062;28;20443;-75
2021/07/23 08:06:02;;;;;;;30.63;17.40;;;21.80;73.60;;;;;;4994335;28;20496;-75
2021/07/23 08:08:28;;;;;;;30.70;15.20;;;21.80;73.70;;;;;;4994821;28;20308;-76
2021/07/23 08:10:54;;;;;;;32.00;16.47;;;21.90;73.90;;;;;;4987424;28;20990;-77
2021/07/23 08:13:20;;;;;;;30.27;15.57;;;22.00;73.30;;;;;;4995922;28;20192;-76
2021/07/23 08:15:46;;;;;;;28.03;15.27;;;22.00;73.30;;;;;;4991000;28;20210;-75
2021/07/23 08:18:14;;;;;;;30.00;17.27;;;22.20;73.30;;;;;;4983306;28;20548;-76
2021/07/23 08:20:40;;;;;;;35.33;16.50;;;22.30;72.10;;;;;;4989647;28;20951;-75
2021/07/23 08:23:06;;;;;;;32.83;17.47;;;22.30;71.30;;;;;;4990824;28;20421;-76
2021/07/23 08:25:32;;;;;;;24.40;15.10;;;22.30;70.80;;;;;;4987399;28;20426;-75
2021/07/23 08:27:58;;;;;;;29.53;15.93;;;22.30;71.00;;;;;;4986063;28;20594;-75
2021/07/23 08:30:23;;;;;;;28.10;14.53;;;22.40;70.10;;;;;;4986917;28;20213;-74
2021/07/23 08:32:49;;;;;;;30.20;14.40;;;22.50;69.50;;;;;;4991676;28;20201;-75
2021/07/23 08:35:15;;;;;;;29.27;15.20;;;22.50;69.50;;;;;;4984800;28;20242;-75
2021/07/23 08:37:41;;;;;;;24.33;14.83;;;22.60;69.10;;;;;;4991335;28;20188;-75
2021/07/23 08:40:08;;;;;;;27.80;15.20;;;22.60;68.90;;;;;;4991211;28;20516;-75
2021/07/23 08:42:35;;;;;;;35.40;14.90;;;22.80;67.00;;;;;;4991588;28;20477;-74
2021/07/23 08:45:03;;;;;;;28.93;14.87;;;23.00;67.20;;;;;;4990270;28;20447;-75
2021/07/23 08:47:29;;;;;;;29.20;15.20;;;23.00;67.50;;;;;;4981571;28;20497;-76
2021/07/23 08:49:55;;;;;;;21.77;13.60;;;23.10;67.60;;;;;;4983171;28;20421;-75
2021/07/23 08:52:40;;;;;;;25.47;14.83;;;23.20;66.90;;;;;;4988585;28;20223;-75
2021/07/23 08:55:07;;;;;;;24.30;13.40;;;23.20;66.10;;;;;;4986986;28;20425;-75
2021/07/23 08:57:33;;;;;;;20.93;13.00;;;23.20;66.30;;;;;;4984181;28;20497;-75
2021/07/23 09:00:05;;;;;;;27.07;14.90;;;23.30;66.30;;;;;;4989629;28;20424;-76
2021/07/23 09:03:02;;;;;;;23.20;13.57;;;23.40;66.30;;;;;;4976540;28;20452;-76
2021/07/23 09:05:33;;;;;;;24.30;13.40;;;23.50;66.10;;;;;;4990086;28;20423;-76
2021/07/23 09:08:01;;;;;;;21.30;13.10;;;23.50;65.10;;;;;;4990996;28;20516;-76
2021/07/23 09:10:31;;;;;;;24.27;12.97;;;23.50;65.70;;;;;;4985672;28;21230;-75
2021/07/23 09:13:01;;;;;;;22.93;13.77;;;23.50;66.30;;;;;;4984592;28;20431;-76
2021/07/23 09:15:41;;;;;;;24.30;13.60;;;23.60;66.00;;;;;;4990568;28;20423;-74
2021/07/23 09:18:31;;;;;;;22.80;14.00;;;23.80;65.70;;;;;;4982244;28;20431;-74
2021/07/23 09:20:57;;;;;;;25.27;13.40;;;23.90;64.50;;;;;;4988097;28;21322;-76
2021/07/23 09:23:39;;;;;;;25.67;13.77;;;23.90;63.40;;;;;;4983491;28;20428;-75
2021/07/23 09:26:07;;;;;;;24.93;13.70;;;23.90;63.80;;;;;;4985859;28;20208;-76
2021/07/23 09:28:35;;;;;;;23.77;13.57;;;24.00;63.80;;;;;;4983483;28;20478;-75
2021/07/23 09:31:06;;;;;;;24.57;13.47;;;24.00;63.90;;;;;;4984509;28;20849;-74
2021/07/23 09:33:34;;;;;;;19.40;12.50;;;24.10;64.10;;;;;;4986102;28;20427;-75
2021/07/23 09:36:10;;;;;;;21.03;12.73;;;24.10;63.90;;;;;;4990338;28;20434;-76
2021/07/23 09:38:45;;;;;;;20.90;12.13;;;24.20;63.50;;;;;;4986326;28;20421;-74
2021/07/23 09:41:12;;;;;;;20.67;13.73;;;24.30;61.00;;;;;;4987941;28;20943;-75
2021/07/23 09:43:45;;;;;;;21.43;12.40;;;24.40;60.60;;;;;;4983011;28;20512;-74
2021/07/23 09:46:16;;;;;;;20.90;12.40;;;24.40;61.60;;;;;;4989407;28;20502;-75
2021/07/23 09:48:46;;;;;;;19.60;12.90;;;24.40;61.30;;;;;;4984754;28;20465;-75
2021/07/23 09:51:12;;;;;;;20.60;13.50;;;24.40;62.20;;;;;;4987083;28;20477;-76
2021/07/23 09:53:38;;;;;;;22.13;13.10;;;24.50;62.20;;;;;;4982080;28;20428;-75
2021/07/23 09:56:08;;;;;;;22.70;12.20;;;24.60;62.30;;;;;;4988959;28;20439;-75
2021/07/23 09:58:46;;;;;;;20.93;12.63;;;24.70;62.20;;;;;;4980236;28;20253;-74
2021/07/23 10:01:18;;;;;;;22.00;13.30;;;24.80;61.70;;;;;;4988569;28;20418;-75
2021/07/23 10:03:46;;;;;;;22.23;13.33;;;24.90;59.90;;;;;;4990129;28;20419;-74
2021/07/23 10:06:30;;;;;;;19.80;12.03;;;25.00;59.70;;;;;;4980775;28;20459;-74
2021/07/23 10:09:01;;;;;;;19.77;12.20;;;25.10;59.20;;;;;;4985104;28;20466;-74
2021/07/23 10:11:28;;;;;;;19.03;11.10;;;25.20;58.50;;;;;;4988392;28;20431;-75
2021/07/23 10:13:56;;;;;;;15.50;10.40;;;25.40;57.70;;;;;;4989779;28;20867;-75
2021/07/23 10:16:23;;;;;;;18.23;11.93;;;25.70;57.00;;;;;;4987087;28;20450;-75
2021/07/23 10:18:49;;;;;;;22.20;11.60;;;26.10;56.40;;;;;;4986342;28;20458;-75
2021/07/23 10:21:15;;;;;;;20.83;11.87;;;26.40;56.20;;;;;;4986563;28;20467;-75
2021/07/23 10:23:44;;;;;;;17.00;10.87;;;26.70;55.00;;;;;;4993279;28;20445;-74
2021/07/23 10:26:11;;;;;;;21.10;11.83;;;26.90;54.00;;;;;;4993222;28;20205;-74
2021/07/23 10:28:40;;;;;;;19.40;12.23;;;27.00;53.60;;;;;;4992498;28;20475;-75
2021/07/23 10:31:18;;;;;;;18.37;12.97;;;27.10;53.60;;;;;;4986531;28;20422;-76
2021/07/23 10:33:57;;;;;;;19.10;11.80;;;27.30;53.00;;;;;;4988171;28;20425;-76
2021/07/23 10:36:43;;;;;;;16.60;10.80;;;27.20;53.20;;;;;;4992341;28;20446;-76
2021/07/23 10:39:11;;;;;;;22.43;12.03;;;27.40;53.40;;;;;;4993670;28;20428;-75
2021/07/23 10:41:41;;;;;;;19.10;11.93;;;27.50;53.00;;;;;;4993724;28;20425;-76
2021/07/23 10:44:26;;;;;;;17.47;11.50;;;27.70;53.20;;;;;;4990459;28;20430;-75
2021/07/23 10:46:51;;;;;;;18.10;11.10;;;28.00;52.00;;;;;;4988222;28;21275;-77
2021/07/23 10:49:30;;;;;;;22.07;12.20;;;28.20;51.30;;;;;;4991648;28;20493;-76
2021/07/23 10:51:59;;;;;;;21.77;12.23;;;28.40;50.70;;;;;;4985168;28;20644;-75
2021/07/23 10:54:32;;;;;;;19.33;11.90;;;28.30;50.70;;;;;;4990683;28;20920;-75
2021/07/23 10:57:00;;;;;;;22.57;12.60;;;28.40;50.50;;;;;;4984238;28;20458;-76
2021/07/23 10:59:38;;;;;;;20.10;11.87;;;28.60;50.90;;;;;;4992034;28;20446;-75
2021/07/23 11:02:05;;;;;;;19.30;11.20;;;28.90;49.30;;;;;;4988806;28;20613;-75
2021/07/23 11:04:32;;;;;;;19.00;11.87;;;29.10;49.00;;;;;;4985934;28;21118;-76
2021/07/23 11:07:05;;;;;;;17.67;11.97;;;29.40;48.50;;;;;;4985016;28;20902;-77
2021/07/23 11:09:31;;;;;;;20.77;11.93;;;29.60;47.30;;;;;;4987666;28;20541;-75
2021/07/23 11:12:11;;;;;;;17.83;11.23;;;29.10;47.90;;;;;;4991113;28;20433;-76
2021/07/23 11:14:36;;;;;;;18.87;11.37;;;29.00;48.90;;;;;;4991785;28;20422;-79
2021/07/23 11:17:03;;;;;;;20.53;12.43;;;29.20;47.70;;;;;;4991744;28;20956;-75
2021/07/23 11:19:29;;;;;;;17.17;11.33;;;29.10;47.70;;;;;;4983478;28;20230;-76
2021/07/23 11:21:54;;;;;;;25.00;11.93;;;28.70;48.90;;;;;;4987037;28;20418;-75
2021/07/23 11:24:20;;;;;;;21.60;12.50;;;28.60;50.20;;;;;;4991344;28;20200;-79
2021/07/23 11:26:54;;;;;;;18.43;11.30;;;28.50;49.90;;;;;;4984662;28;20207;-77
2021/07/23 11:29:35;;;;;;;19.13;12.10;;;28.40;50.60;;;;;;4986247;28;20203;-75
2021/07/23 11:32:08;;;;;;;17.80;12.00;;;28.50;50.50;;;;;;4982226;28;20502;-75
2021/07/23 11:34:40;;;;;;;18.00;11.60;;;28.80;50.50;;;;;;4978801;28;20426;-76
2021/07/23 11:37:17;;;;;;;20.33;11.27;;;29.30;48.50;;;;;;4987761;28;20450;-74
2021/07/23 11:39:54;;;;;;;19.73;12.07;;;29.70;47.50;;;;;;4992198;28;20926;-75
2021/07/23 11:42:21;;;;;;;21.43;11.10;;;29.70;46.90;;;;;;4991695;28;20438;-75
2021/07/23 11:44:55;;;;;;;18.00;10.90;;;29.80;46.90;;;;;;4989678;28;20422;-77
2021/07/23 11:47:37;;;;;;;18.83;11.00;;;30.00;46.50;;;;;;4984486;28;20447;-74
2021/07/23 11:50:07;;;;;;;17.47;11.37;;;30.00;46.20;;;;;;4987954;28;20446;-76
2021/07/23 11:52:34;;;;;;;16.13;11.53;;;29.70;45.70;;;;;;4977928;28;20421;-74
2021/07/23 11:55:02;;;;;;;18.23;11.10;;;29.00;46.90;;;;;;4985286;28;20845;-75
2021/07/23 11:57:39;;;;;;;16.47;11.07;;;28.80;47.70;;;;;;4981996;28;20470;-75
2021/07/23 12:00:07;;;;;;;17.83;11.27;;;29.00;47.90;;;;;;4982792;28;20473;-75
2021/07/23 12:02:32;;;;;;;18.20;11.27;;;29.20;47.10;;;;;;4990524;28;20429;-77
2021/07/23 12:05:09;;;;;;;19.43;11.30;;;29.40;46.70;;;;;;4984609;28;20407;-77
2021/07/23 12:07:37;;;;;;;21.47;12.53;;;29.70;46.50;;;;;;4984555;28;20237;-77
2021/07/23 12:10:11;;;;;;;20.27;11.63;;;30.00;46.30;;;;;;4987767;28;20422;-76
2021/07/23 12:12:38;;;;;;;18.03;11.10;;;30.00;46.90;;;;;;4986423;28;20438;-76
2021/07/23 12:15:05;;;;;;;22.33;11.93;;;30.00;46.50;;;;;;4985903;28;20422;-77
2021/07/23 12:17:33;;;;;;;17.73;11.13;;;30.20;45.90;;;;;;4982723;28;20937;-76
2021/07/23 12:19:59;;;;;;;16.03;10.50;;;30.20;44.90;;;;;;4985860;28;20480;-76
2021/07/23 12:22:24;;;;;;;15.83;10.20;;;30.20;44.90;;;;;;4983543;28;20422;-75
2021/07/23 12:24:50;;;;;;;20.73;10.47;;;30.40;44.70;;;;;;4986431;28;20531;-75
2021/07/23 12:27:23;;;;;;;13.93;9.90;;;30.80;43.50;;;;;;4984245;28;20266;-75
2021/07/23 12:29:49;;;;;;;17.77;11.37;;;30.90;42.40;;;;;;4986631;28;20661;-76